Time;durP1;ratioP1;P1;durP2;ratioP2;P2;SDS_P1;SDS_P2;PMS_P1;PMS_P2;Temp;Humidity;BMP_temperature;BMP_pressure;BME280_temperature;BME280_humidity;BME280_pressure;Samples;Min_cycle;Max_cycle;Signal;HPM_P1;HPM_P2
2022/07/18 00:00:11;;;;;;;4.72;1.90;;;;;;;21.83;33.98;100018.50;5129590;28;20088;-70
2022/07/18 00:02:38;;;;;;;3.78;2.28;;;;;;;21.37;33.87;99957.06;5111124;28;20349;-70
2022/07/18 00:05:07;;;;;;;4.20;2.08;;;;;;;21.00;34.18;99905.59;5129293;28;20059;-71
2022/07/18 00:07:34;;;;;;;5.38;2.15;;;;;;;21.73;34.33;100017.59;5111512;28;20114;-70
2022/07/18 00:10:04;;;;;;;3.45;2.08;;;;;;;21.22;34.71;99945.84;5129329;28;20055;-70
2022/07/18 00:12:31;;;;;;;4.70;2.42;;;;;;;21.01;35.15;99918.09;5129396;28;20039;-70
2022/07/18 00:14:58;;;;;;;6.32;2.17;;;;;;;21.46;35.17;100019.09;5129155;28;20056;-70
2022/07/18 00:17:27;;;;;;;3.38;1.85;;;;;;;21.54;34.98;100009.47;5111351;28;20044;-68
2022/07/18 00:19:54;;;;;;;5.55;2.85;;;;;;;21.54;34.88;100013.03;5129169;28;20104;-69
2022/07/18 00:22:21;;;;;;;4.60;2.47;;;;;;;21.30;34.93;99988.28;5128715;28;20063;-70
2022/07/18 00:24:49;;;;;;;12.73;9.73;;;;;;;21.23;34.82;99979.88;5128879;28;20116;-69
2022/07/18 00:27:16;;;;;;;18.33;13.50;;;;;;;21.42;34.83;100008.75;5128718;28;20055;-70
2022/07/18 00:29:43;;;;;;;15.63;12.75;;;;;;;21.40;34.85;100006.19;5128915;28;20055;-70
2022/07/18 00:32:10;;;;;;;14.35;11.80;;;;;;;21.41;34.98;100009.72;5128364;28;20104;-70
2022/07/18 00:34:39;;;;;;;11.00;8.35;;;;;;;21.39;35.13;100009.00;5128890;28;20051;-70
2022/07/18 00:37:07;;;;;;;7.90;5.53;;;;;;;21.32;35.05;100022.19;5128847;28;20206;-70
2022/07/18 00:39:34;;;;;;;6.40;4.20;;;;;;;21.33;35.14;100020.34;5129143;28;20040;-70
2022/07/18 00:42:01;;;;;;;6.18;3.80;;;;;;;21.28;35.06;100012.66;5128714;28;20056;-70
2022/07/18 00:44:29;;;;;;;9.73;6.63;;;;;;;21.26;35.03;100011.97;5128320;28;20055;-70
2022/07/18 00:46:59;;;;;;;13.02;8.60;;;;;;;21.12;35.36;99997.00;5128784;28;20047;-68
2022/07/18 00:49:26;;;;;;;15.80;11.68;;;;;;;21.01;35.04;99970.13;5128701;28;20357;-68
2022/07/18 00:51:55;;;;;;;15.40;11.43;;;;;;;21.16;35.20;100005.69;5127646;28;20055;-68
2022/07/18 00:54:22;;;;;;;11.50;6.50;;;;;;;21.15;35.33;100003.97;5128467;28;20100;-69
2022/07/18 00:56:51;;;;;;;6.85;5.00;;;;;;;21.14;35.66;100004.97;5128700;28;20069;-69
2022/07/18 00:59:20;;;;;;;7.30;3.35;;;;;;;21.12;35.50;100018.56;5128084;28;20055;-69
2022/07/18 01:01:47;;;;;;;4.43;3.45;;;;;;;21.06;35.93;100008.34;5128056;28;20071;-69
2022/07/18 01:04:18;;;;;;;5.65;2.80;;;;;;;21.06;35.98;100010.19;5128690;28;20042;-69
2022/07/18 01:06:46;;;;;;;3.75;2.13;;;;;;;20.62;35.66;99931.41;5128314;28;20318;-68
2022/07/18 01:09:16;;;;;;;5.78;2.42;;;;;;;20.86;35.51;99982.25;5127780;28;20100;-69
2022/07/18 01:11:45;;;;;;;3.25;2.08;;;;;;;20.99;35.89;100007.13;5128317;28;20153;-69
2022/07/18 01:14:16;;;;;;;4.13;2.17;;;;;;;20.79;36.36;99973.88;5128090;28;20063;-69
2022/07/18 01:16:44;;;;;;;7.00;2.53;;;;;;;20.90;36.83;100012.47;5127907;28;20043;-69
2022/07/18 01:19:11;;;;;;;5.15;2.60;;;;;;;20.42;36.62;99959.22;5127920;28;20060;-69
2022/07/18 01:21:40;;;;;;;3.97;2.40;;;;;;;20.72;37.25;100004.16;5127983;28;20193;-68
2022/07/18 01:24:07;;;;;;;4.05;2.20;;;;;;;20.67;37.60;99991.09;5128028;28;20193;-68
2022/07/18 01:26:36;;;;;;;5.45;2.20;;;;;;;20.79;37.92;100016.97;5127924;28;20044;-69
2022/07/18 01:29:04;;;;;;;3.05;1.98;;;;;;;20.78;38.36;100015.25;5127838;28;20096;-68
2022/07/18 01:31:33;;;;;;;3.35;2.28;;;;;;;20.75;38.53;100017.38;5127650;28;20109;-69
2022/07/18 01:34:00;;;;;;;5.45;2.47;;;;;;;20.66;38.60;100016.31;5127417;28;20055;-68
2022/07/18 01:36:28;;;;;;;3.33;1.92;;;;;;;20.59;39.56;100017.84;5109275;28;20319;-68
2022/07/18 01:38:56;;;;;;;6.05;2.53;;;;;;;20.63;38.85;100023.81;5127715;28;20077;-69
2022/07/18 01:41:24;;;;;;;7.65;5.15;;;;;;;20.54;39.64;100024.63;5127520;28;20051;-67
2022/07/18 01:43:51;;;;;;;12.00;8.20;;;;;;;20.54;39.85;100017.38;5127394;28;20063;-68
2022/07/18 01:46:18;;;;;;;10.35;8.57;;;;;;;20.21;40.47;100001.41;5127465;28;20097;-68
2022/07/18 01:48:45;;;;;;;10.80;7.72;;;;;;;20.16;40.19;99991.88;5127314;28;20055;-68
2022/07/18 01:51:13;;;;;;;9.35;8.10;;;;;;;19.90;39.91;99943.94;5127383;28;20048;-68
2022/07/18 01:53:42;;;;;;;7.75;6.35;;;;;;;20.27;39.37;99995.53;5127327;28;20052;-68
2022/07/18 01:56:13;;;;;;;6.00;4.07;;;;;;;20.29;40.57;100020.47;5127136;28;20315;-68
2022/07/18 01:58:40;;;;;;;5.68;3.15;;;;;;;20.22;40.49;100013.88;5127192;28;20063;-69
2022/07/18 02:01:07;;;;;;;8.98;6.82;;;;;;;20.10;40.00;99988.84;5127157;28;20218;-69
2022/07/18 02:03:35;;;;;;;14.63;7.97;;;;;;;20.28;40.47;100013.38;5125935;28;20079;-68
2022/07/18 02:06:02;;;;;;;13.38;10.85;;;;;;;20.28;40.22;100011.53;5127030;28;20242;-68
2022/07/18 02:08:30;;;;;;;13.45;10.48;;;;;;;20.23;39.75;100008.38;5126660;28;20059;-68
2022/07/18 02:10:57;;;;;;;8.88;6.60;;;;;;;20.16;40.61;100018.78;5126831;28;20055;-68
2022/07/18 02:13:26;;;;;;;9.02;5.55;;;;;;;20.21;39.96;100020.22;5126507;28;20104;-70
2022/07/18 02:15:55;;;;;;;7.35;4.57;;;;;;;20.17;40.13;100007.03;5126965;28;20272;-68
2022/07/18 02:18:22;;;;;;;4.20;3.30;;;;;;;20.14;40.84;100007.28;5126253;28;20051;-69
2022/07/18 02:20:49;;;;;;;5.30;2.53;;;;;;;20.11;40.42;100015.63;5126745;28;20113;-69
2022/07/18 02:23:16;;;;;;;3.38;2.40;;;;;;;20.12;40.62;100095.38;5126496;28;20056;-69
2022/07/18 02:25:43;;;;;;;3.83;2.30;;;;;;;19.64;40.19;99943.41;5126490;28;20056;-69
2022/07/18 02:28:11;;;;;;;3.78;2.17;;;;;;;20.05;40.59;100018.84;5126622;28;20101;-69
2022/07/18 02:30:39;;;;;;;3.67;2.40;;;;;;;20.04;40.74;100022.50;5126402;28;20116;-69
2022/07/18 02:33:06;;;;;;;3.72;2.10;;;;;;;19.98;40.93;100014.94;5126311;28;20096;-69
2022/07/18 02:35:33;;;;;;;3.50;2.15;;;;;;;19.91;40.81;100016.44;5126301;28;20055;-68
2022/07/18 02:38:01;;;;;;;2.92;2.00;;;;;;;19.89;40.76;100023.78;5126044;28;20063;-69
2022/07/18 02:40:29;;;;;;;2.90;1.95;;;;;;;19.85;40.77;100012.44;5126116;28;20081;-69
2022/07/18 02:42:56;;;;;;;3.00;1.67;;;;;;;19.67;40.88;99992.41;5126030;28;20051;-69
2022/07/18 02:45:23;;;;;;;4.25;2.60;;;;;;;19.86;41.13;100021.34;5126215;28;20299;-69
2022/07/18 02:47:52;;;;;;;4.97;1.88;;;;;;;19.84;41.46;100012.56;5126217;28;20051;-69
2022/07/18 02:50:19;;;;;;;4.78;1.88;;;;;;;19.04;40.89;99889.19;5126128;28;20307;-69
2022/07/18 02:52:47;;;;;;;4.68;2.13;;;;;;;19.83;41.22;100021.63;5126035;28;20101;-69
2022/07/18 02:55:14;;;;;;;5.22;1.75;;;;;;;19.71;41.34;100019.91;5126107;28;20051;-69
2022/07/18 02:57:42;;;;;;;3.03;1.83;;;;;;;19.73;41.42;100017.94;5125965;28;20048;-69
2022/07/18 03:00:12;;;;;;;3.58;2.00;;;;;;;19.72;41.36;100016.22;5125788;28;20051;-68
2022/07/18 03:02:39;;;;;;;3.20;1.73;;;;;;;19.18;41.37;99955.25;5125639;28;20388;-69
2022/07/18 03:05:09;;;;;;;2.97;1.73;;;;;;;19.61;41.73;100017.13;5125867;28;20048;-68
2022/07/18 03:07:36;;;;;;;5.22;2.13;;;;;;;19.13;41.52;99946.69;5125653;28;20048;-69
2022/07/18 03:10:04;;;;;;;7.78;2.40;;;;;;;19.44;41.91;99997.00;5125708;28;20356;-68
2022/07/18 03:12:31;;;;;;;4.55;2.22;;;;;;;19.52;41.63;100018.72;5125531;28;20128;-69
2022/07/18 03:14:59;;;;;;;3.72;2.20;;;;;;;19.43;41.98;100019.47;5125303;28;20104;-69
2022/07/18 03:17:26;;;;;;;4.00;1.95;;;;;;;19.36;41.89;100014.69;5125673;28;20100;-69
2022/07/18 03:19:53;;;;;;;4.25;2.42;;;;;;;19.16;42.19;99998.34;5125321;28;20059;-68
2022/07/18 03:22:22;;;;;;;3.75;2.75;;;;;;;19.36;41.98;100022.75;5125809;28;20226;-69
2022/07/18 03:24:49;;;;;;;3.72;2.35;;;;;;;19.36;42.28;100022.75;5125802;28;20059;-69
2022/07/18 03:27:16;;;;;;;3.72;2.10;;;;;;;19.30;41.83;100023.25;5125429;28;20097;-68
2022/07/18 03:29:44;;;;;;;4.57;2.08;;;;;;;19.31;42.36;100024.97;5125268;28;20066;-68
2022/07/18 03:32:11;;;;;;;3.75;1.90;;;;;;;19.27;42.43;100023.50;5125283;28;20060;-69
2022/07/18 03:34:38;;;;;;;3.47;2.15;;;;;;;19.13;42.58;100025.47;5125577;28;20257;-69
2022/07/18 03:37:06;;;;;;;3.40;2.15;;;;;;;18.31;42.66;99887.03;5125525;28;20303;-68
2022/07/18 03:39:34;;;;;;;3.85;2.35;;;;;;;19.23;42.84;100022.91;5125413;28;20261;-68
2022/07/18 03:42:01;;;;;;;4.38;2.15;;;;;;;19.17;42.73;100023.38;5125350;28;20062;-68
2022/07/18 03:44:29;;;;;;;4.32;2.65;;;;;;;19.03;42.42;99999.47;5125513;28;20248;-69
2022/07/18 03:46:56;;;;;;;4.13;2.90;;;;;;;19.22;42.43;100021.19;5125510;28;20051;-69
2022/07/18 03:49:23;;;;;;;4.80;2.55;;;;;;;19.19;42.22;100026.81;5125461;28;20063;-69
2022/07/18 03:51:50;;;;;;;3.80;2.55;;;;;;;19.10;42.64;100024.84;5125617;28;20055;-68
2022/07/18 03:54:17;;;;;;;4.13;2.42;;;;;;;18.95;42.59;100026.94;5125475;28;20055;-69
2022/07/18 03:56:46;;;;;;;6.45;2.53;;;;;;;18.74;43.11;100008.00;5125436;28;20323;-68
2022/07/18 03:59:13;;;;;;;4.85;2.20;;;;;;;18.69;42.95;100010.19;5125332;28;20249;-69
2022/07/18 04:01:41;;;;;;;3.83;2.13;;;;;;;18.90;43.00;100035.34;5124945;28;20101;-69
2022/07/18 04:04:08;;;;;;;12.38;8.95;;;;;;;18.79;42.96;100034.47;5125444;28;20112;-69
2022/07/18 04:06:35;;;;;;;5.60;4.70;;;;;;;18.80;42.91;100034.38;5125328;28;20319;-69
2022/07/18 04:09:03;;;;;;;7.90;3.90;;;;;;;18.85;43.16;100040.22;5125335;28;20077;-69
2022/07/18 04:11:30;;;;;;;4.45;3.00;;;;;;;18.89;43.37;100030.09;5125327;28;20052;-69
2022/07/18 04:13:58;;;;;;;7.72;3.47;;;;;;;19.02;43.23;100035.34;5125238;28;20055;-69
2022/07/18 04:16:26;;;;;;;7.72;3.08;;;;;;;19.00;42.77;100035.47;5107267;28;20051;-68
2022/07/18 04:18:53;;;;;;;3.92;2.72;;;;;;;18.95;43.27;100036.81;5125006;28;20056;-69
2022/07/18 04:21:20;;;;;;;4.80;2.65;;;;;;;18.92;42.88;100033.41;5125217;28;20055;-69
2022/07/18 04:23:47;;;;;;;3.70;2.40;;;;;;;18.94;42.79;100025.22;5124838;28;20052;-69
2022/07/18 04:26:15;;;;;;;3.50;2.50;;;;;;;18.86;43.13;100030.34;5125084;28;20063;-69
2022/07/18 04:28:42;;;;;;;4.50;2.85;;;;;;;18.70;43.24;100003.00;5128789;28;20116;-69
2022/07/18 04:31:10;;;;;;;4.82;3.03;;;;;;;18.84;42.86;100027.78;5128509;28;20112;-68
2022/07/18 04:33:38;;;;;;;6.57;3.25;;;;;;;18.75;43.08;100011.53;5128730;28;20168;-69
2022/07/18 04:36:06;;;;;;;5.30;2.63;;;;;;;18.88;43.17;100026.56;5128603;28;20059;-68
2022/07/18 04:38:37;;;;;;;10.27;3.08;;;;;;;18.91;43.58;100025.47;5128467;28;20052;-68
2022/07/18 04:41:04;;;;;;;10.88;2.90;;;;;;;19.04;43.14;100028.03;5128389;28;20109;-69
2022/07/18 04:43:32;;;;;;;5.78;2.83;;;;;;;19.09;43.11;100025.84;5128003;28;20063;-69
2022/07/18 04:45:59;;;;;;;8.65;3.17;;;;;;;19.06;43.45;100029.63;5128453;28;20051;-69
2022/07/18 04:48:28;;;;;;;9.48;3.13;;;;;;;19.18;43.23;100027.78;5128354;28;20104;-69
2022/07/18 04:50:55;;;;;;;6.75;2.55;;;;;;;19.22;42.91;100024.72;5128426;28;20056;-69
2022/07/18 04:53:22;;;;;;;4.63;2.65;;;;;;;19.29;43.00;100026.91;5128353;28;20059;-69
2022/07/18 04:55:50;;;;;;;4.55;2.50;;;;;;;19.27;42.75;100026.19;5128129;28;20116;-69
2022/07/18 04:58:17;;;;;;;7.35;3.05;;;;;;;19.25;43.54;100039.75;5127842;28;20056;-69
2022/07/18 05:00:44;;;;;;;6.05;2.80;;;;;;;19.31;43.21;100031.19;5128227;28;20060;-69
2022/07/18 05:03:12;;;;;;;5.97;2.50;;;;;;;19.36;43.02;100033.50;5128037;28;20073;-69
2022/07/18 05:05:41;;;;;;;7.13;2.90;;;;;;;19.40;43.19;100030.47;5128202;28;20056;-69
2022/07/18 05:08:11;;;;;;;7.70;2.60;;;;;;;19.42;43.05;100027.66;5127714;28;20059;-69
2022/07/18 05:10:38;;;;;;;7.18;3.05;;;;;;;19.35;42.87;100021.91;5127747;28;20269;-69
2022/07/18 05:13:05;;;;;;;3.97;2.17;;;;;;;19.45;42.83;100022.91;5128068;28;20060;-69
2022/07/18 05:15:33;;;;;;;4.82;2.50;;;;;;;19.47;42.93;100029.00;5110155;28;20056;-68
2022/07/18 05:18:00;;;;;;;6.18;2.47;;;;;;;19.49;43.50;100031.56;5127868;28;20241;-68
2022/07/18 05:20:27;;;;;;;5.40;3.22;;;;;;;19.06;42.59;99956.22;5127830;28;20257;-68
2022/07/18 05:22:56;;;;;;;5.30;3.42;;;;;;;19.40;42.89;100024.25;5127912;28;20096;-69
2022/07/18 05:25:24;;;;;;;3.92;2.50;;;;;;;18.99;42.80;99918.28;5127271;28;20051;-69
2022/07/18 05:27:51;;;;;;;11.85;3.42;;;;;;;19.58;42.55;100030.81;5127636;28;20052;-69
2022/07/18 05:30:19;;;;;;;6.13;3.17;;;;;;;19.53;42.46;100033.03;5127203;28;20116;-69
2022/07/18 05:32:47;;;;;;;6.40;2.95;;;;;;;19.10;42.17;99984.56;5127592;28;20056;-69
2022/07/18 05:35:14;;;;;;;5.97;2.53;;;;;;;19.61;42.37;100022.50;5127350;28;20051;-69
2022/07/18 05:37:42;;;;;;;4.95;3.15;;;;;;;19.11;42.72;99949.50;5127334;28;20104;-69
2022/07/18 05:40:13;;;;;;;6.05;2.88;;;;;;;19.66;42.31;100022.97;5127237;28;20055;-69
2022/07/18 05:42:41;;;;;;;11.07;3.40;;;;;;;19.62;42.50;100026.03;5127081;28;20172;-69
2022/07/18 05:45:11;;;;;;;5.63;2.20;;;;;;;19.66;42.22;100020.28;5127442;28;20104;-69
2022/07/18 05:47:38;;;;;;;5.50;2.55;;;;;;;19.73;42.81;100026.00;5127565;28;20055;-69
2022/07/18 05:50:07;;;;;;;8.85;2.95;;;;;;;19.71;42.42;100025.28;5127250;28;20348;-69
2022/07/18 05:52:34;;;;;;;9.73;2.72;;;;;;;19.79;42.62;100020.97;5126950;28;20383;-68
2022/07/18 05:55:01;;;;;;;3.67;2.83;;;;;;;19.89;42.21;100026.47;5127183;28;20063;-69
2022/07/18 05:57:30;;;;;;;5.03;2.50;;;;;;;19.95;41.92;100023.28;5126859;28;20055;-69
2022/07/18 05:59:57;;;;;;;6.97;2.42;;;;;;;20.00;42.68;100025.59;5126909;28;20063;-69
2022/07/18 06:02:24;;;;;;;6.65;2.83;;;;;;;20.05;42.81;100026.91;5126517;28;20051;-69
2022/07/18 06:04:52;;;;;;;8.00;2.72;;;;;;;20.08;42.50;100032.03;5126919;28;20303;-69
2022/07/18 06:07:19;;;;;;;5.45;2.95;;;;;;;20.09;42.71;100031.06;5126984;28;20057;-69
2022/07/18 06:09:46;;;;;;;10.00;3.00;;;;;;;20.14;42.78;100036.03;5126697;28;20108;-69
2022/07/18 06:12:13;;;;;;;9.25;2.80;;;;;;;20.11;42.95;100039.00;5126815;28;20055;-69
2022/07/18 06:14:42;;;;;;;7.18;2.60;;;;;;;20.13;43.07;100034.34;5126727;28;20113;-70
2022/07/18 06:17:09;;;;;;;7.75;2.92;;;;;;;20.14;42.88;100034.22;5126498;28;20055;-69
2022/07/18 06:19:37;;;;;;;5.35;3.08;;;;;;;20.15;43.07;100033.22;5126541;28;20059;-69
2022/07/18 06:22:05;;;;;;;9.18;4.28;;;;;;;20.19;43.00;100026.59;5126647;28;20042;-69
2022/07/18 06:24:32;;;;;;;10.25;3.53;;;;;;;20.25;42.99;100038.72;5126569;28;20104;-69
2022/07/18 06:26:59;;;;;;;8.20;3.47;;;;;;;20.10;43.01;100013.91;5126295;28;20055;-69
2022/07/18 06:29:27;;;;;;;7.00;3.22;;;;;;;20.31;43.17;100043.59;5125981;28;20051;-70
2022/07/18 06:31:55;;;;;;;6.43;2.88;;;;;;;20.37;42.86;100036.81;5126306;28;20245;-69
2022/07/18 06:34:23;;;;;;;6.45;2.60;;;;;;;20.40;42.51;100036.56;5126509;28;20040;-69
2022/07/18 06:36:50;;;;;;;7.82;3.55;;;;;;;20.43;42.09;100036.31;5126192;28;20312;-69
2022/07/18 06:39:18;;;;;;;9.35;2.83;;;;;;;20.43;41.97;100030.91;5125980;28;20230;-70
2022/07/18 06:41:45;;;;;;;5.85;2.67;;;;;;;20.40;41.54;100010.50;5125816;28;20063;-70
2022/07/18 06:44:13;;;;;;;7.75;2.85;;;;;;;20.49;41.59;100041.16;5126088;28;20112;-69
2022/07/18 06:46:40;;;;;;;4.18;2.92;;;;;;;20.54;41.36;100036.22;5125708;28;20261;-70
2022/07/18 06:49:09;;;;;;;6.13;2.33;;;;;;;20.10;40.98;99973.56;5125766;28;20222;-69
2022/07/18 06:51:36;;;;;;;5.20;2.25;;;;;;;20.41;41.28;100011.34;5125881;28;20048;-70
2022/07/18 06:54:04;;;;;;;5.75;2.38;;;;;;;20.40;41.41;100005.13;5126027;28;20047;-70
2022/07/18 06:56:31;;;;;;;4.85;2.30;;;;;;;20.70;41.42;100031.22;5125727;28;20140;-70
2022/07/18 06:58:58;;;;;;;5.43;2.78;;;;;;;20.78;40.79;100023.34;5125878;28;20051;-69
2022/07/18 07:01:25;;;;;;;5.05;2.60;;;;;;;20.75;40.57;100022.75;5126003;28;20108;-69
2022/07/18 07:03:53;;;;;;;4.22;2.10;;;;;;;20.88;40.47;100019.84;5105452;28;20063;-69
2022/07/18 07:06:22;;;;;;;5.38;2.50;;;;;;;20.96;40.19;100009.25;5105266;28;20121;-69
2022/07/18 07:08:49;;;;;;;7.68;2.17;;;;;;;21.10;40.21;100015.16;5104393;28;20233;-70
2022/07/18 07:11:16;;;;;;;6.85;2.05;;;;;;;21.25;39.55;100012.94;5105497;28;20040;-70
2022/07/18 07:13:43;;;;;;;3.63;2.08;;;;;;;21.31;39.33;99980.03;5105633;28;20121;-69
2022/07/18 07:16:10;;;;;;;4.15;2.42;;;;;;;21.65;37.81;99982.38;5105614;28;20056;-69
2022/07/18 07:18:38;;;;;;;5.05;2.67;;;;;;;21.86;37.60;99999.34;5105276;28;20377;-70
2022/07/18 07:21:07;;;;;;;6.20;2.58;;;;;;;22.03;37.87;99997.78;5105464;28;20056;-69
2022/07/18 07:23:35;;;;;;;5.80;2.15;;;;;;;22.30;36.93;99994.34;5105565;28;20068;-69
2022/07/18 07:26:02;;;;;;;7.22;2.35;;;;;;;22.31;36.25;99978.00;5105366;28;20349;-70
2022/07/18 07:28:30;;;;;;;6.30;2.22;;;;;;;22.71;36.55;100004.00;5105158;28;20052;-70
2022/07/18 07:30:57;;;;;;;5.07;2.80;;;;;;;22.98;35.95;99995.09;5105167;28;20121;-70
2022/07/18 07:33:24;;;;;;;7.68;2.17;;;;;;;23.19;35.39;100006.50;5105528;28;20059;-70
2022/07/18 07:35:51;;;;;;;3.65;2.10;;;;;;;23.41;33.90;99999.03;5105224;28;20125;-70
2022/07/18 07:38:19;;;;;;;7.47;2.22;;;;;;;23.34;34.54;99969.88;5105232;28;20290;-70
2022/07/18 07:40:48;;;;;;;4.10;2.30;;;;;;;23.47;33.90;99982.19;5105169;28;20074;-70
2022/07/18 07:43:17;;;;;;;5.53;2.47;;;;;;;23.67;33.75;99987.31;5104944;28;20109;-70
2022/07/18 07:45:48;;;;;;;6.18;2.28;;;;;;;23.79;33.57;99985.25;5105225;28;20067;-70
2022/07/18 07:48:16;;;;;;;6.07;2.22;;;;;;;23.40;33.77;99911.63;5105428;28;20040;-70
2022/07/18 07:50:43;;;;;;;3.45;2.00;;;;;;;24.04;32.59;99990.94;5104777;28;20060;-69
2022/07/18 07:53:11;;;;;;;6.65;2.72;;;;;;;24.13;32.13;99992.69;5104789;28;20064;-69
2022/07/18 07:55:38;;;;;;;4.05;2.33;;;;;;;24.32;32.44;99993.38;5104854;28;20056;-69
2022/07/18 07:58:07;;;;;;;3.95;2.70;;;;;;;24.44;32.41;99993.97;5105167;28;20193;-70
2022/07/18 08:00:34;;;;;;;5.03;2.33;;;;;;;24.41;32.36;100001.56;5104685;28;20071;-69
2022/07/18 08:03:03;;;;;;;4.40;2.10;;;;;;;24.56;32.45;99994.56;5120685;28;20048;-70
2022/07/18 08:05:32;;;;;;;5.53;2.47;;;;;;;24.59;32.07;99967.16;5128981;28;20113;-70
2022/07/18 08:08:01;;;;;;;14.07;3.08;;;;;;;24.89;31.36;99993.78;5128724;28;20108;-69
2022/07/18 08:10:29;;;;;;;5.30;2.72;;;;;;;25.08;31.15;99990.03;5128945;28;20052;-70
2022/07/18 08:12:56;;;;;;;6.80;2.47;;;;;;;25.07;30.39;99993.75;5129159;28;20046;-70
2022/07/18 08:15:25;;;;;;;3.30;1.75;;;;;;;25.10;30.53;99979.00;5129053;28;20059;-70
2022/07/18 08:17:52;;;;;;;3.30;2.08;;;;;;;25.17;29.93;99988.19;5128688;28;20055;-70
2022/07/18 08:20:21;;;;;;;5.85;2.17;;;;;;;25.20;30.03;99963.47;5129318;28;20109;-70
2022/07/18 08:22:59;;;;;;;4.55;1.80;;;;;;;25.48;29.35;99977.66;5128499;28;20108;-70
2022/07/18 08:25:27;;;;;;;4.53;2.00;;;;;;;25.61;29.64;100002.47;5128819;28;20055;-70
2022/07/18 08:27:55;;;;;;;7.85;2.88;;;;;;;25.73;30.19;99981.28;5128506;28;20312;-70
2022/07/18 08:30:22;;;;;;;6.65;2.40;;;;;;;25.91;28.96;99981.97;5128774;28;20361;-70
2022/07/18 08:32:51;;;;;;;4.97;2.05;;;;;;;25.87;28.94;99989.63;5128652;28;20055;-69
2022/07/18 08:35:19;;;;;;;6.65;2.20;;;;;;;25.81;29.03;99962.28;5128817;28;20055;-70
2022/07/18 08:37:46;;;;;;;4.80;1.80;;;;;;;25.91;29.31;99977.41;5128635;28;20082;-70
2022/07/18 08:40:15;;;;;;;14.23;2.40;;;;;;;26.06;29.74;99984.91;5128283;28;20101;-70
2022/07/18 08:42:43;;;;;;;6.25;2.20;;;;;;;26.18;28.68;99983.56;5128329;28;20257;-69
2022/07/18 08:45:11;;;;;;;6.25;2.65;;;;;;;26.04;29.16;99978.81;5128418;28;20108;-69
2022/07/18 08:47:40;;;;;;;4.78;2.00;;;;;;;26.08;29.15;99977.44;5128089;28;20053;-71
2022/07/18 08:50:12;;;;;;;3.47;1.92;;;;;;;26.16;28.33;99980.16;5128297;28;20364;-70
2022/07/18 08:52:40;;;;;;;5.53;2.00;;;;;;;25.87;28.82;99929.03;5128453;28;20261;-70
2022/07/18 08:55:09;;;;;;;5.72;2.47;;;;;;;26.09;28.80;99960.13;5128135;28;20105;-70
2022/07/18 08:57:36;;;;;;;4.82;1.92;;;;;;;26.35;28.71;99974.38;5127997;28;20056;-70
2022/07/18 09:00:04;;;;;;;4.85;2.20;;;;;;;26.53;28.29;99975.03;5128135;28;20052;-70
2022/07/18 09:02:32;;;;;;;6.00;2.47;;;;;;;26.61;27.48;99976.94;5127686;28;20291;-70
2022/07/18 09:05:01;;;;;;;7.32;2.83;;;;;;;26.58;27.59;99969.09;5110291;28;20052;-70
2022/07/18 09:07:32;;;;;;;5.38;1.83;;;;;;;26.70;27.52;99977.75;5128168;28;20051;-70
2022/07/18 09:10:05;;;;;;;5.25;1.73;;;;;;;26.79;26.81;99974.00;5111235;28;20047;-70
2022/07/18 09:12:32;;;;;;;5.75;2.45;;;;;;;26.93;26.62;99945.22;5127472;28;20096;-69
2022/07/18 09:15:06;;;;;;;4.07;2.22;;;;;;;26.90;26.49;99962.75;5127903;28;20101;-68
2022/07/18 09:17:35;;;;;;;4.55;2.00;;;;;;;26.91;27.91;99961.72;5126522;28;20056;-68
2022/07/18 09:20:08;;;;;;;4.38;2.35;;;;;;;27.08;27.00;99944.31;5127753;28;20052;-68
2022/07/18 09:22:38;;;;;;;5.30;3.50;;;;;;;27.30;26.83;99960.91;5127739;28;20153;-68
2022/07/18 09:25:11;;;;;;;4.57;2.15;;;;;;;27.06;26.06;99957.25;5128250;28;20055;-70
2022/07/18 09:27:41;;;;;;;7.88;2.03;;;;;;;27.19;26.05;99954.81;5127723;28;20051;-70
2022/07/18 09:30:24;;;;;;;6.47;2.05;;;;;;;27.02;25.83;99931.44;5128088;28;20299;-69
2022/07/18 09:32:53;;;;;;;4.78;1.80;;;;;;;27.16;26.49;99946.16;5127606;28;20056;-70
2022/07/18 09:35:23;;;;;;;6.05;2.08;;;;;;;27.33;25.60;99942.38;5127524;28;20047;-70
2022/07/18 09:37:58;;;;;;;4.95;2.10;;;;;;;27.30;24.85;99950.88;5127587;28;20164;-70
2022/07/18 09:40:30;;;;;;;5.40;1.67;;;;;;;27.36;26.14;99935.72;5126719;28;20062;-70
2022/07/18 09:42:59;;;;;;;4.53;1.70;;;;;;;27.56;25.83;99938.84;5127651;28;20085;-70
2022/07/18 09:45:29;;;;;;;3.60;1.95;;;;;;;27.85;24.75;99935.47;5126414;28;20055;-70
2022/07/18 09:47:58;;;;;;;11.63;3.45;;;;;;;27.93;24.23;99928.06;5126942;28;20055;-70
2022/07/18 09:50:28;;;;;;;5.05;2.47;;;;;;;27.98;24.82;99947.44;5127045;28;20059;-70
2022/07/18 09:53:09;;;;;;;5.63;2.45;;;;;;;27.18;23.86;99838.84;5126823;28;20096;-70
2022/07/18 09:55:42;;;;;;;5.80;2.45;;;;;;;27.85;24.00;99947.19;5127076;28;20039;-70
2022/07/18 09:58:09;;;;;;;4.28;1.83;;;;;;;27.78;25.23;99921.69;5127043;28;20338;-71
2022/07/18 10:00:39;;;;;;;14.82;2.47;;;;;;;28.07;24.41;99950.94;5108804;28;20088;-70
2022/07/18 10:03:08;;;;;;;2.72;1.58;;;;;;;27.84;23.97;99928.31;5126840;28;20323;-70
2022/07/18 10:05:38;;;;;;;4.53;2.40;;;;;;;27.39;23.72;99805.56;5126887;28;20124;-70
2022/07/18 10:08:09;;;;;;;5.90;2.53;;;;;;;28.38;23.53;99946.22;5126791;28;20194;-70
2022/07/18 10:10:37;;;;;;;4.15;2.08;;;;;;;28.42;24.83;99930.34;5126751;28;20249;-70
2022/07/18 10:13:06;;;;;;;6.50;2.72;;;;;;;28.63;24.11;99938.69;5126923;28;20036;-70
2022/07/18 10:15:36;;;;;;;4.82;2.20;;;;;;;28.59;23.85;99939.25;5127049;28;20039;-71
2022/07/18 10:18:06;;;;;;;4.70;2.08;;;;;;;28.44;23.11;99940.06;5126464;28;20055;-70
2022/07/18 10:20:36;;;;;;;4.85;2.00;;;;;;;28.54;23.76;99937.06;5126737;28;20054;-69
2022/07/18 10:23:12;;;;;;;3.63;1.80;;;;;;;28.66;22.72;99937.47;5126920;28;20061;-70
2022/07/18 10:25:40;;;;;;;5.72;1.90;;;;;;;28.51;23.14;99942.91;5125684;28;20051;-70
2022/07/18 10:28:10;;;;;;;2.58;1.52;;;;;;;28.47;22.98;99940.72;5126383;28;20059;-70
2022/07/18 10:30:42;;;;;;;4.78;1.90;;;;;;;28.41;23.03;99915.88;5126494;28;20047;-70
2022/07/18 10:33:39;;;;;;;4.38;1.67;;;;;;;28.69;20.86;99923.44;5125691;28;20051;-69
2022/07/18 10:36:09;;;;;;;3.78;1.77;;;;;;;28.80;21.04;99900.31;5126149;28;20055;-70
2022/07/18 10:38:39;;;;;;;4.13;2.10;;;;;;;28.81;22.51;99921.09;5126440;28;20055;-69
2022/07/18 10:41:10;;;;;;;4.13;1.80;;;;;;;28.68;22.67;99917.16;5126233;28;20051;-69
2022/07/18 10:43:45;;;;;;;4.75;2.38;;;;;;;28.70;22.38;99916.97;5126169;28;20097;-69
2022/07/18 10:46:14;;;;;;;4.72;2.55;;;;;;;28.53;21.50;99855.47;5126228;28;20055;-69
2022/07/18 10:48:58;;;;;;;5.25;2.45;;;;;;;28.90;21.67;99914.50;5126465;28;20055;-70
2022/07/18 10:51:31;;;;;;;4.57;1.98;;;;;;;28.70;21.25;99886.97;5091373;28;20044;-69
2022/07/18 10:54:15;;;;;;;5.40;1.95;;;;;;;28.80;21.18;99900.31;5126168;28;20077;-70
2022/07/18 10:57:11;;;;;;;4.25;1.88;;;;;;;28.92;20.66;99898.81;5122055;28;20074;-71
2022/07/18 11:00:00;;;;;;;3.00;2.13;;;;;;;28.96;21.71;99900.97;5126187;28;20357;-71
2022/07/18 11:02:36;;;;;;;3.55;1.83;;;;;;;29.01;21.61;99889.50;5125968;28;20097;-71
2022/07/18 11:05:25;;;;;;;5.22;1.88;;;;;;;29.15;21.66;99880.44;5125972;28;20031;-71
2022/07/18 11:08:18;;;;;;;5.25;1.80;;;;;;;28.07;20.23;99717.47;5090741;28;20035;-70
2022/07/18 11:11:18;;;;;;;5.10;1.40;;;;;;;28.93;19.67;99879.50;5125404;28;20100;-71
2022/07/18 11:13:49;;;;;;;2.58;1.60;;;;;;;28.91;21.57;99884.31;5120022;28;20103;-70
2022/07/18 11:16:20;;;;;;;5.20;1.80;;;;;;;28.79;21.50;99874.91;5125617;28;20234;-70
2022/07/18 11:19:30;;;;;;;2.70;1.55;;;;;;;28.87;20.22;99865.78;5125858;28;20081;-71
2022/07/18 11:21:58;;;;;;;3.50;1.80;;;;;;;29.10;21.32;99871.97;5125690;28;20052;-71
2022/07/18 11:24:26;;;;;;;3.72;2.08;;;;;;;29.23;21.96;99863.09;5125573;28;20100;-71
2022/07/18 11:26:56;;;;;;;4.13;1.80;;;;;;;29.35;20.90;99864.28;5125638;28;20081;-71
2022/07/18 11:29:23;;;;;;;6.25;2.20;;;;;;;29.01;21.45;99810.38;5125663;28;20242;-71
2022/07/18 11:31:53;;;;;;;3.38;1.70;;;;;;;29.44;21.31;99859.56;5125777;28;20055;-71
2022/07/18 11:34:21;;;;;;;3.95;1.88;;;;;;;29.32;21.42;99829.19;5125455;28;20085;-70
2022/07/18 11:36:48;;;;;;;5.20;1.95;;;;;;;29.48;22.11;99849.94;5128215;28;20364;-71